Home > Products > Valid Products > TAF

000
FTUS42 KMLB 200900 AAB
TAFMCO
TAF AMD
KMCO 200902Z 2009/2106 34006KT P6SM BKN009 OVC018
     FM201500 34012KT P6SM SCT020 BKN030
     FM201900 34013KT P6SM BKN035
     FM210100 35010KT P6SM SCT035=



000
FTUS42 KMLB 200800 AAA
TAFMLB
TAF AMD
KMLB 200835Z 2009/2106 29008KT P6SM OVC018
     FM201600 34014G22KT P6SM SCT025 BKN035
     FM210100 01014G19KT P6SM SCT035=



000
FTUS42 KMLB 200600 AAA
TAFMCO
TAF AMD
KMCO 200625Z 2006/2106 28007KT P6SM OVC015
     FM200900 31008KT P6SM BKN008 OVC015
     FM201500 34012KT P6SM SCT020 BKN030
     FM201900 34013KT P6SM BKN035
     FM210100 35010KT P6SM SCT035=



000
FTUS42 KMLB 200600 AAA
TAFDAB
TAF AMD
KDAB 200625Z 2006/2106 35011KT P6SM OVC008
     FM201400 33015G22KT P6SM BKN012
     FM201800 36016G24KT P6SM BKN028
     FM210100 02014G20KT P6SM BKN030=



000
FTUS42 KMLB 200500
TAFDAB
TAF
KDAB 200533Z 2006/2106 VRB05KT 5SM BR OVC006
     FM201400 33015G22KT P6SM BKN012
     FM201800 36016G24KT P6SM BKN028
     FM210100 02014G20KT P6SM BKN030=



000
FTUS42 KMLB 200500
TAFVRB
TAF
KVRB 200533Z 2006/2106 28006KT P6SM OVC028
     FM201400 33010KT P6SM BKN035
     FM210100 36009KT P6SM SCT035=



000
FTUS42 KMLB 200500
TAFMLB
TAF
KMLB 200533Z 2006/2106 30009KT P6SM OVC025
     FM201600 34014G22KT P6SM SCT025 BKN035
     FM210100 01014G19KT P6SM SCT035=



000
FTUS42 KMLB 200500
TAFSFB
TAF
KSFB 200533Z 2006/2106 31010KT P6SM OVC008
      TEMPO 2006/2008 SCT008 OVC013
     FM201500 34012KT P6SM BKN025
     FM201900 34013KT P6SM BKN035
     FM210200 35010KT P6SM SCT035=



000
FTUS42 KMLB 200500
TAFMCO
TAF
KMCO 200533Z 2006/2106 28009KT P6SM SCT010 OVC025
     FM200900 31008KT P6SM BKN008 OVC015
     FM201500 34012KT P6SM SCT020 BKN030
     FM201900 34013KT P6SM BKN035
     FM210100 35010KT P6SM SCT035=



000
FTUS42 KMLB 200400 CCA
TAFDAB
TAF COR
KDAB 200440Z 2000/2024 28010KT P6SM OVC008
      TEMPO 2005/2006 -DZ SCT008 OVC015
     FM201800 34015KT P6SM SCT025 BKN040=



000
FTUS42 KMLB 200400 AAA
TAFDAB
TAF AMD
KDAB 200438Z 2005/2024 29007KT P6SM OVC008
      TEMPO 2005/2006 SCT008 OVC015
     FM201800 34015KT P6SM SCT025 BKN040=



000
FTUS42 KMLB 200200 AAA
TAFMCO
TAF AMD
KMCO 200250Z 2003/2024 29008KT P6SM SCT015 BKN020
      TEMPO 2010/2013 BKN010 OVC020
     FM201500 34012KT P6SM SCT020 BKN040=



000
FTUS42 KMLB 192300
TAFMLB
TAF
KMLB 192340Z 2000/2024 27012KT P6SM BKN040
     FM200900 30010KT P6SM BKN020 OVC040
     FM201700 33014KT P6SM SCT025 BKN040=



000
FTUS42 KMLB 192300
TAFMCO
TAF
KMCO 192340Z 2000/2024 28010KT P6SM SCT020 BKN040
     FM200300 29008KT P6SM SCT015 BKN020
      TEMPO 2010/2013 BKN010 OVC020
     FM201500 34012KT P6SM SCT020 BKN040=



000
FTUS42 KMLB 192300
TAFDAB
TAF
KDAB 192340Z 2000/2024 28010KT P6SM SCT020 BKN040
     FM200300 31010KT P6SM SCT015 BKN020
      TEMPO 2010/2013 BKN008 OVC015
     FM201800 34015KT P6SM SCT025 BKN040=



000
FTUS42 KMLB 192300
TAFSFB
TAF
KSFB 192340Z 2000/2024 28010KT P6SM SCT020 BKN040
     FM200300 29008KT P6SM SCT015 BKN020
      TEMPO 2010/2013 BKN010 OVC020
     FM201500 34012KT P6SM SCT020 BKN040=



000
FTUS42 KMLB 192300
TAFVRB
TAF
KVRB 192340Z 2000/2024 27012KT P6SM SCT040
     FM200300 27008KT P6SM SCT025 BKN035
      TEMPO 2010/2013 BKN025
     FM201700 33012KT P6SM SCT025 BKN040=



000
FTUS42 KMLB 192100 AAA
TAFSFB
TAF AMD
KSFB 192100Z 1921/2018 27014G20KT P6SM SCT025 BKN050
     FM200000 29008KT P6SM SCT012 BKN020
     FM201400 33012KT P6SM SCT040 BKN080
      TEMPO 2014/2018 BKN040=



000
FTUS42 KMLB 192000 AAB
TAFMCO
TAF AMD
KMCO 192058Z 1921/2018 27014G20KT P6SM SCT025 BKN050
     FM200000 29010KT P6SM SCT012 BKN020
     FM201400 32012KT P6SM SCT040 BKN080
      TEMPO 2014/2018 BKN040=



000
FTUS42 KMLB 191900 AAA
TAFMCO
TAF AMD
KMCO 191928Z 1919/2018 26012G18KT P6SM SCT025 BKN040
      TEMPO 1921/1924 BKN025 BKN040
     FM200000 29010KT P6SM SCT012 BKN020
     FM201400 32012KT P6SM SCT040 BKN080
      TEMPO 2014/2018 BKN040=



000
FTUS42 KMLB 191900 AAA
TAFVRB
TAF AMD
KVRB 191923Z 1919/2018 26015KT P6SM SCT025 OVC050
     FM200100 27008KT P6SM SCT035 BKN050
      TEMPO 2010/2014 BKN025
     FM201400 29010KT P6SM SCT030 BKN080
      TEMPO 2014/2018 BKN030=



000
FTUS42 KMLB 191900 AAA
TAFDAB
TAF AMD
KDAB 191921Z 1919/2018 24013KT P6SM SCT035 BKN050
     FM200000 30005KT P6SM SCT012 BKN020
      TEMPO 2010/2014 BKN012
     FM201400 35015KT P6SM VCSH SCT025 BKN040
      TEMPO 2014/2018 BKN025=



000
FTUS42 KMLB 191700
TAFMLB
TAF
KMLB 191725Z 1918/2018 24011KT P6SM SCT020 BKN035 OVC050
     FM200100 27010KT P6SM SCT012 BKN020
      TEMPO 2010/2014 BKN012
     FM201400 33011KT P6SM SCT025 BKN040
      TEMPO 2014/2018 BKN025=



000
FTUS42 KMLB 191700
TAFDAB
TAF
KDAB 191725Z 1918/2018 23013KT P6SM BKN030 BKN045
     FM200000 30005KT P6SM SCT012 BKN020
      TEMPO 2010/2014 BKN012
     FM201400 35015KT P6SM VCSH SCT025 BKN040
      TEMPO 2014/2018 BKN025=



000
FTUS42 KMLB 191700
TAFMCO
TAF
KMCO 191725Z 1918/2018 23014G19KT P6SM FEW027 FEW040
     FM200000 29010KT P6SM SCT012 BKN020
     FM201400 32012KT P6SM SCT040 BKN080
      TEMPO 2014/2018 BKN040=



000
FTUS42 KMLB 191700
TAFVRB
TAF
KVRB 191725Z 1918/2018 23010KT P6SM SCT025 OVC050
     FM200100 27008KT P6SM SCT035 BKN050
      TEMPO 2010/2014 BKN025
     FM201400 29010KT P6SM SCT030 BKN080
      TEMPO 2014/2018 BKN030=



000
FTUS42 KMLB 191700
TAFSFB
TAF
KSFB 191725Z 1918/2018 26011KT P6SM FEW025 SCT030 OVC040
     FM200000 29008KT P6SM SCT012 BKN020
     FM201400 33012KT P6SM SCT040 BKN080
      TEMPO 2014/2018 BKN040=



000
FTUS42 KMLB 191400 AAB
TAFMLB
TAF AMD
KMLB 191456Z 1915/2012 22012KT P6SM SCT005 BKN012
     FM191800 25012KT P6SM VCSH SCT025 BKN035
     FM200100 27010KT P6SM SCT012 BKN020=



000
FTUS42 KMLB 191400 AAA
TAFSFB
TAF AMD
KSFB 191453Z 1915/2012 25011KT P6SM VCSH BKN025
     FM200000 29008KT P6SM SCT012 BKN020=



000
FTUS42 KMLB 191400 AAB
TAFMCO
TAF AMD
KMCO 191452Z 1915/2012 25013KT P6SM VCSH BKN025
     FM200000 29010KT P6SM SCT012 BKN020=



000
FTUS42 KMLB 191300 AAA
TAFDAB
TAF AMD
KDAB 191306Z 1913/2012 20006KT P6SM BKN010 BKN020
      TEMPO 1913/1914 BKN005
     FM191400 25008KT P6SM VCSH SCT020 BKN030
     FM200000 30005KT P6SM SCT012 BKN020=



000
FTUS42 KMLB 191300 AAA
TAFMCO
TAF AMD
KMCO 191304Z 1913/2012 24007KT P6SM FEW010 SCT015 BKN040
      TEMPO 1913/1915 BKN015
     FM191500 26011KT P6SM VCSH SCT025 BKN035
     FM200000 29010KT P6SM SCT012 BKN020=



000
FTUS42 KMLB 191300 AAA
TAFMLB
TAF AMD
KMLB 191303Z 1913/2012 20010KT P6SM FEW010 SCT025 BKN035
      TEMPO 1913/1914 BKN009
     FM191600 25012KT P6SM VCSH SCT025 BKN035
     FM200100 27010KT P6SM SCT012 BKN020=



000
FTUS42 KMLB 191100
TAFMCO
TAF
KMCO 191135Z 1912/2012 18005KT P6SM VCSH FEW005 SCT045 SCT250
     FM191500 26011KT P6SM VCSH SCT025 BKN035
     FM200000 29010KT P6SM SCT012 BKN020=



000
FTUS42 KMLB 191100
TAFVRB
TAF
KVRB 191135Z 1912/2012 22006KT P6SM VCSH FEW045 FEW070 OVC110
      TEMPO 1912/1913 SHRA BKN025 OVC035
     FM191400 23011KT P6SM VCSH SCT035 BKN070
     FM200100 27008KT P6SM SCT035 BKN050=



000
FTUS42 KMLB 191100
TAFSFB
TAF
KSFB 191135Z 1912/2012 16004KT P6SM SCT012 BKN017 BKN027
      TEMPO 1912/1914 BKN020
     FM191500 25011KT P6SM VCSH SCT025 BKN035
     FM200000 29008KT P6SM SCT012 BKN020=



000
FTUS42 KMLB 191100
TAFMLB
TAF
KMLB 191135Z 1912/2012 21008KT P6SM FEW020 SCT025 BKN035
      TEMPO 1912/1914 BKN015
     FM191600 25012KT P6SM VCSH SCT025 BKN035
     FM200100 27010KT P6SM SCT012 BKN020=



000
FTUS42 KMLB 191100
TAFSFB
TAF
KSFB 191135Z 1912/2012 20008KT P6SM SCT020 SCT080
      TEMPO 1912/1914 BKN020
     FM191500 25011KT P6SM VCSH SCT025 BKN035
     FM200000 29008KT P6SM SCT012 BKN020=



000
FTUS42 KMLB 191100
TAFDAB
TAF
KDAB 191135Z 1912/2012 22005KT P6SM SCT010 SCT030
      TEMPO 1912/1914 BKN009 BKN030
     FM191400 25008KT P6SM VCSH SCT020 BKN030
     FM200000 30005KT P6SM SCT012 BKN020=



000
FTUS42 KMLB 191100
TAFVRB
TAF
KVRB 191135Z 1912/2012 20007KT P6SM VCTS SCT007 BKN035CB OVC100
      TEMPO 1912/1913 SHRA BKN025 OVC035
     FM191400 23011KT P6SM VCSH SCT035 BKN070
     FM200100 27008KT P6SM SCT035 BKN050=



000
FTUS42 KMLB 191100
TAFMCO
TAF
KMCO 191135Z 1912/2012 20006KT P6SM VCSH SCT025 SCT080
     FM191500 26011KT P6SM VCSH SCT025 BKN035
     FM200000 29010KT P6SM SCT012 BKN020=



000
FTUS42 KMLB 191100
TAFMLB
TAF
KMLB 191135Z 1912/2012 22007KT P6SM SKC
      TEMPO 1912/1914 BKN015
     FM191600 25012KT P6SM VCSH SCT025 BKN035
     FM200100 27010KT P6SM SCT012 BKN020=



000
FTUS42 KMLB 191100
TAFDAB
TAF
KDAB 191135Z 1912/2012 16004KT 6SM BR SCT008 SCT040
      TEMPO 1912/1914 BKN009 BKN030
     FM191400 25008KT P6SM VCSH SCT020 BKN030
     FM200000 30005KT P6SM SCT012 BKN020=



000
FTUS42 KMLB 190900 AAA
TAFDAB
TAF AMD
KDAB 190943Z 1910/2006 23008KT P6SM SCT010
      TEMPO 1910/1912 BKN010
     FM191400 24008KT P6SM VCSH SCT008 OVC015
     FM200000 28005KT P6SM SCT012 BKN020=



000
FTUS42 KMLB 190900 AAA
TAFMCO
TAF AMD
KMCO 190941Z 1910/2006 20006KT P6SM VCSH SCT006 SCT080
      TEMPO 1910/1912 BKN006
     FM191900 26013KT P6SM VCSH SCT025 BKN035
     FM200000 27010KT P6SM SCT012 BKN020=



000
FTUS42 KMLB 190900 AAA
TAFSFB
TAF AMD
KSFB 190941Z 1910/2006 20008KT P6SM VCSH SCT005 SCT030
      TEMPO 1910/1912 BKN005
     FM191900 25013KT P6SM VCSH SCT025 BKN035
     FM200000 28010KT P6SM SCT012 BKN020=



000
FTUS42 KMLB 190700 AAA
TAFVRB
TAF AMD
KVRB 190757Z 1908/2006 19007KT P6SM VCSH SCT020 BKN090
      TEMPO 1909/1911 4SM TSRA BR SCT020CB BKN025
     FM191400 23011KT P6SM VCSH SCT010 OVC035
     FM192300 26010KT P6SM SCT012 BKN035=



000
FTUS42 KMLB 190700 AAA
TAFMLB
TAF AMD
KMLB 190755Z 1908/2006 19008KT P6SM VCSH SCT025 BKN035 OVC070
      TEMPO 1908/1910 5SM -TSRA BR SCT018CB BKN030
     FM191600 23012KT P6SM VCSH SCT010 OVC035
     FM200000 25010KT P6SM SCT012 BKN020=



000
FTUS42 KMLB 190500
TAFMCO
TAF
KMCO 190540Z 1906/2006 17005KT P6SM VCSH BKN015 BKN035
     FM190800 18008KT P6SM VCSH BKN003 OVC020
     FM191400 22010KT P6SM VCSH SCT008 OVC020
     FM191900 26013KT P6SM VCSH SCT025 BKN035
     FM200000 27010KT P6SM SCT012 BKN020=



000
FTUS42 KMLB 190500
TAFSFB
TAF
KSFB 190540Z 1906/2006 16005KT P6SM VCSH SCT015 BKN035 OVC060
      TEMPO 1906/1908 5SM -SHRA BR BKN018 BKN030
     FM190800 18008KT P6SM VCSH BKN003 OVC020
     FM191400 22010KT P6SM VCSH SCT008 OVC020
     FM191900 25013KT P6SM VCSH SCT025 BKN035
     FM200000 28010KT P6SM SCT012 BKN020=



000
FTUS42 KMLB 190500
TAFDAB
TAF
KDAB 190540Z 1906/2006 16003KT P6SM VCSH SCT025 BKN035 OVC060
      TEMPO 1906/1908 5SM -SHRA BR BKN020 BKN050
     FM190900 18008KT P6SM VCSH BKN003 OVC020
     FM191400 22008KT P6SM VCSH SCT008 OVC015
     FM200000 28005KT P6SM SCT012 BKN020=



000
FTUS42 KMLB 190500
TAFVRB
TAF
KVRB 190540Z 1906/2006 17006KT P6SM VCSH BKN035 OVC080
      TEMPO 1906/1910 4SM BR BKN020
     FM191000 19008KT 5SM BR VCSH SCT005 BKN015
     FM191400 23011KT P6SM VCSH SCT010 OVC035
     FM192300 26010KT P6SM SCT012 BKN035=



000
FTUS42 KMLB 190500
TAFMLB
TAF
KMLB 190540Z 1906/2006 16006KT P6SM VCSH SCT020 OVC060
      TEMPO 1907/1910 5SM -SHRA BR BKN018 BKN030
     FM191000 18008KT P6SM VCSH BKN005 OVC020
     FM191600 23012KT P6SM VCSH SCT010 OVC035
     FM200000 25010KT P6SM SCT012 BKN020=



000
FTUS42 KMLB 190200 AAA
TAFMCO
TAF AMD
KMCO 190259Z 1903/1924 17007KT P6SM VCSH SCT050 BKN100
     FM190800 18010KT P6SM VCSH BKN035 OVC050
     FM191300 22010KT P6SM VCSH BKN025 OVC050
     FM191800 26013KT P6SM SCT025 BKN035=



000
FTUS42 KMLB 190100 AAA
TAFVRB
TAF AMD
KVRB 190156Z 1902/1924 16008KT P6SM VCTS SCT020CB OVC050
      TEMPO 1902/1904 3SM TSRA BKN020CB
     FM190800 18008KT P6SM VCSH BKN030 OVC050
     FM191400 23014KT P6SM VCSH SCT015 OVC040=



000
FTUS42 KMLB 190000 AAA
TAFMLB
TAF AMD
KMLB 190021Z 1900/1924 18008KT P6SM VCSH SCT020 BKN040
      TEMPO 1900/1902 3SM TSRA BKN020CB OVC040
     FM190800 18008KT P6SM VCSH BKN030 OVC050
     FM191400 23014KT P6SM VCSH SCT015 OVC040=



000
FTUS42 KMLB 182300
TAFSFB
TAF
KSFB 182339Z 1900/1924 18009KT P6SM VCSH SCT035 BKN080
      TEMPO 1900/1901 6SM -SHRA BKN035
     FM190800 18010KT P6SM VCSH BKN030 OVC050
     FM191300 22010KT P6SM VCSH BKN025 OVC050
     FM191800 26013KT P6SM SCT025 BKN035=



000
FTUS42 KMLB 182300
TAFDAB
TAF
KDAB 182339Z 1900/1924 17008KT P6SM VCSH SCT020 BKN040
      TEMPO 1900/1902 6SM -SHRA BKN035
     FM190800 18008KT P6SM VCSH BKN030 OVC050
     FM191500 23012KT P6SM VCSH BKN025 OVC040=



000
FTUS42 KMLB 182300
TAFVRB
TAF
KVRB 182339Z 1900/1924 16008KT P6SM VCTS SCT020CB OVC050
      TEMPO 1900/1902 3SM TSRA BKN020CB
     FM190800 18008KT P6SM VCSH BKN030 OVC050
     FM191400 23014KT P6SM VCSH SCT015 OVC040=



000
FTUS42 KMLB 182300
TAFMLB
TAF
KMLB 182339Z 1900/1924 18008KT P6SM VCSH SCT020 BKN040
      TEMPO 1900/1902 5SM SHRA BKN020
     FM190800 18008KT P6SM VCSH BKN030 OVC050
     FM191400 23014KT P6SM VCSH SCT015 OVC040=



000
FTUS42 KMLB 182300
TAFMCO
TAF
KMCO 182339Z 1900/1924 18009KT P6SM VCSH SCT035 BKN080
     FM190800 18010KT P6SM VCSH BKN030 OVC050
     FM191300 22010KT P6SM VCSH BKN025 OVC050
     FM191800 26013KT P6SM SCT025 BKN035=



000
FTUS42 KMLB 182200 AAA
TAFVRB
TAF AMD
KVRB 182248Z 1823/1918 14015KT P6SM VCTS SCT020 BKN040CB OVC060
      TEMPO 1823/1824 2SM TSRA BKN020CB
     FM190000 16008KT P6SM VCSH SCT030 OVC050
     FM191400 22014KT P6SM VCSH SCT015 OVC040=



000
FTUS42 KMLB 182100 AAB
TAFMCO
TAF AMD
KMCO 182155Z 1822/1918 18012KT P6SM VCSH SCT035 BKN060
      TEMPO 1822/1824 6SM -SHRA BKN035
     FM190300 18009KT P6SM VCSH BKN030 OVC050
     FM191300 22010KT P6SM VCSH SCT015 OVC050=



000
FTUS42 KMLB 182000 AAA
TAFDAB
TAF AMD
KDAB 182057Z 1821/1918 17011KT P6SM VCTS SCT020 BKN040CB
      TEMPO 1822/1823 26018G30KT 2SM +TSRA BKN020CB
     FM190300 16008KT P6SM VCSH BKN030 OVC050
     FM191300 22014KT P6SM VCSH SCT015 OVC040=



000
FTUS42 KMLB 182000 AAA
TAFSFB
TAF AMD
KSFB 182041Z 1821/1918 16012KT P6SM VCTS SCT011 SCT025CB BKN050
      TEMPO 1821/1822 26018G30KT 2SM +TSRA BKN025CB
     FM190300 18010KT P6SM VCSH BKN030 OVC050
     FM191300 21011KT P6SM VCSH SCT015 OVC050=



000
FTUS42 KMLB 182000 AAA
TAFMCO
TAF AMD
KMCO 182034Z 1821/1918 17012G18KT P6SM VCTS SCT020CB BKN035 OVC130
      TEMPO 1821/1822 26018G30KT 2SM +TSRA BKN025CB
     FM190300 17009KT P6SM VCSH BKN030 OVC050
     FM191300 22010KT P6SM VCSH SCT015 OVC050=



000
FTUS42 KMLB 181700
TAFSFB
TAF
KSFB 181737Z 1818/1918 16012KT P6SM VCTS SCT011 BKN015CB OVC024
      TEMPO 1820/1822 4SM TSRA SCT008 BKN015CB
     FM190300 18010KT P6SM VCSH BKN030 OVC050
     FM191300 21011KT P6SM VCSH SCT015 OVC050=



000
FTUS42 KMLB 181700
TAFVRB
TAF
KVRB 181737Z 1818/1918 13015KT P6SM VCSH FEW024 OVC150
     FM182000 14015KT P6SM SHRA VCTS SCT020 BKN040CB OVC060
     FM190500 16008KT P6SM VCSH BKN030 OVC050
     FM191400 22014KT P6SM VCSH SCT015 OVC040=



000
FTUS42 KMLB 181700
TAFMLB
TAF
KMLB 181737Z 1818/1918 14014KT P6SM VCSH BKN011 BKN030
     FM181900 14011G20KT P6SM SHRA VCTS SCT020 BKN040CB OVC060
      TEMPO 1821/1823 4SM TSRA SCT020 BKN030CB
     FM190500 16008KT P6SM VCSH BKN030 OVC050
     FM191400 22014KT P6SM VCSH SCT015 OVC040=



000
FTUS42 KMLB 181700
TAFDAB
TAF
KDAB 181737Z 1818/1918 15007KT P6SM VCSH BKN015 OVC025
     FM182000 14011KT P6SM SHRA VCTS SCT020 BKN040CB OVC060
      TEMPO 1821/1823 4SM TSRA SCT020 BKN030CB
     FM190300 16008KT P6SM VCSH BKN030 OVC050
     FM191300 22014KT P6SM VCSH SCT015 OVC040=



000
FTUS42 KMLB 181700
TAFMCO
TAF
KMCO 181737Z 1818/1918 15011KT P6SM VCTS SCT020CB BKN035 OVC130
      TEMPO 1820/1822 4SM TSRA BKN020CB OVC040
     FM190300 17009KT P6SM VCSH BKN030 OVC050
     FM191300 22010KT P6SM VCSH SCT015 OVC050=



000
FTUS42 KMLB 181600 AAB
TAFMCO
TAF AMD
KMCO 181616Z 1816/1912 14010KT P6SM VCSH BKN020 OVC100
      TEMPO 1816/1817 BKN010
     FM181800 15012KT P6SM SHRA VCTS SCT020 BKN040CB OVC060
      TEMPO 1820/1822 4SM TSRA SCT020 BKN030CB
     FM190300 17009KT P6SM VCSH BKN030 OVC050=



000
FTUS42 KMLB 181500 AAA
TAFMLB
TAF AMD
KMLB 181513Z 1815/1912 13009KT P6SM VCSH BKN010 OVC045
      TEMPO 1815/1818 5SM -SHRA
     FM181900 14011G20KT P6SM SHRA VCTS SCT020 BKN040CB OVC060
      TEMPO 1821/1823 4SM TSRA SCT020 BKN030CB
     FM190500 16008KT P6SM VCSH BKN030 OVC050=



000
FTUS42 KMLB 181500 AAC
TAFDAB
TAF AMD
KDAB 181511Z 1815/1912 10011KT P6SM VCSH SCT010 BKN020 OVC035
      TEMPO 1816/1817 -SHRA BKN010
     FM181900 14011KT P6SM SHRA VCTS SCT020 BKN040CB OVC060
      TEMPO 1821/1823 4SM TSRA SCT020 BKN030CB
     FM190300 16008KT P6SM VCSH BKN030 OVC050=



000
FTUS42 KMLB 181500 AAB
TAFSFB
TAF AMD
KSFB 181506Z 1815/1912 13009KT P6SM VCSH BKN010 OVC025
      TEMPO 1815/1816 4SM SHRA
     FM181800 15012KT P6SM SHRA VCTS SCT020 BKN040CB OVC060
      TEMPO 1820/1822 4SM TSRA SCT020 BKN030CB
     FM190300 18010KT P6SM VCSH BKN030 OVC050=



000
FTUS42 KMLB 181400 AAA
TAFMCO
TAF AMD
KMCO 181456Z 1815/1912 10011KT P6SM VCSH SCT010 OVC110
      TEMPO 1815/1816 BKN010
     FM181800 15012KT P6SM SHRA VCTS SCT020 BKN040CB OVC060
      TEMPO 1820/1822 4SM TSRA SCT020 BKN030CB
     FM190300 17009KT P6SM VCSH BKN030 OVC050=



000
FTUS42 KMLB 181400 AAB
TAFDAB
TAF AMD
KDAB 181447Z 1815/1912 09010KT P6SM VCTS SCT010 BKN020CB OVC035
      TEMPO 1815/1816 2SM TSRA OVC009CB
     FM181900 14011KT P6SM SHRA VCTS SCT020 BKN040CB OVC060
      TEMPO 1821/1823 4SM TSRA SCT020 BKN030CB
     FM190300 16008KT P6SM VCSH BKN030 OVC050=



000
FTUS42 KMLB 181300 AAA
TAFDAB
TAF AMD
KDAB 181308Z 1813/1912 09010KT P6SM VCSH SCT015 BKN020
      TEMPO 1814/1815 2SM SHRA SCT008 BKN015 OVC035
     FM181900 14011KT P6SM SHRA VCTS SCT020 BKN040CB OVC060
      TEMPO 1821/1823 4SM TSRA SCT020 BKN030CB
     FM190300 16008KT P6SM VCSH BKN030 OVC050=



000
FTUS42 KMLB 181200 AAA
TAFSFB
TAF AMD
KSFB 181233Z 1813/1912 08010KT P6SM VCSH BKN020
      TEMPO 1813/1814 2SM SHRA BKN008
     FM181500 13012G20KT P6SM VCSH SCT015 BKN035 OVC150
     FM181800 15012KT P6SM SHRA VCTS SCT020 BKN040CB OVC060
      TEMPO 1820/1822 4SM TSRA SCT020 BKN030CB
     FM190300 18010KT P6SM VCSH BKN030 OVC050=



000
FTUS42 KMLB 181100
TAFMCO
TAF
KMCO 181135Z 1812/1912 08009KT P6SM VCSH BKN020
     FM181500 12012G20KT P6SM VCSH SCT015 BKN035 OVC150
     FM181800 15012KT P6SM SHRA VCTS SCT020 BKN040CB OVC060
      TEMPO 1820/1822 4SM TSRA SCT020 BKN030CB
     FM190300 17009KT P6SM VCSH BKN030 OVC050=



000
FTUS42 KMLB 181100
TAFVRB
TAF
KVRB 181135Z 1812/1912 09011KT P6SM VCSH SCT015 BKN030 OVC050
     FM181300 14012KT P6SM VCSH SCT035 BKN150
     FM182100 14010KT P6SM SHRA VCTS SCT020 BKN040CB OVC060=



000
FTUS42 KMLB 181100
TAFMLB
TAF
KMLB 181135Z 1812/1912 09012KT P6SM VCSH SCT015 BKN025
      TEMPO 1812/1813 3SM SHRA BKN010 OVC020
     FM181400 11012G18KT P6SM VCSH SCT035 OVC150
     FM181900 14011G20KT P6SM SHRA VCTS SCT020 BKN040CB OVC060
      TEMPO 1821/1823 4SM TSRA SCT020 BKN030CB
     FM190500 16008KT P6SM VCSH BKN030 OVC050=



000
FTUS42 KMLB 181100
TAFSFB
TAF
KSFB 181135Z 1812/1912 08010KT P6SM VCSH BKN020
     FM181500 13012G20KT P6SM VCSH SCT015 BKN035 OVC150
     FM181800 15012KT P6SM SHRA VCTS SCT020 BKN040CB OVC060
      TEMPO 1820/1822 4SM TSRA SCT020 BKN030CB
     FM190300 18010KT P6SM VCSH BKN030 OVC050=



000
FTUS42 KMLB 181100
TAFDAB
TAF
KDAB 181135Z 1812/1912 09010KT P6SM VCSH SCT015 BKN020
     FM181900 14011KT P6SM SHRA VCTS SCT020 BKN040CB OVC060
      TEMPO 1821/1823 4SM TSRA SCT020 BKN030CB
     FM190300 16008KT P6SM VCSH BKN030 OVC050=



000
FTUS42 KMLB 180800 AAA
TAFVRB
TAF AMD
KVRB 180823Z 1808/1906 07012KT P6SM -SHRA SCT015 OVC025
      TEMPO 1809/1812 4SM TSRA BKN015CB BKN025
     FM181200 14012KT P6SM VCSH SCT035 BKN060
     FM182100 14010KT P6SM SHRA VCTS SCT020 BKN040CB OVC060=



000
FTUS42 KMLB 180500 RRA
TAFSFB
TAF
KSFB 180543Z 1806/1906 08010KT P6SM SCT025 BKN040 OVC150
     FM181400 13012G20KT P6SM VCSH SCT015 BKN035 OVC080
     FM181800 15012KT P6SM SHRA VCTS SCT020 BKN040CB OVC060
     FM190300 18010KT P6SM VCSH BKN030 OVC050=



000
FTUS42 KMLB 180500 RRA
TAFMLB
TAF
KMLB 180543Z 1806/1906 09012KT P6SM VCSH SCT020 BKN050 OVC150
      TEMPO 1810/1813 -SHRA SCT015 BKN025
     FM181400 11012G18KT P6SM VCSH SCT035 BKN060
     FM181900 14011G20KT P6SM SHRA VCTS SCT020 BKN040CB OVC060
     FM190500 16008KT P6SM VCSH BKN030 OVC050=



000
FTUS42 KMLB 180500 RRA
TAFDAB
TAF
KDAB 180543Z 1806/1906 09010KT P6SM VCSH SCT030 BKN050 OVC150
     FM181400 11011KT P6SM VCSH SCT015 BKN035 OVC080
     FM181800 14011KT P6SM SHRA VCTS SCT020 BKN040CB OVC060
     FM190300 16008KT P6SM VCSH BKN030 OVC050=



000
FTUS42 KMLB 180500 RRA
TAFVRB
TAF
KVRB 180543Z 1806/1906 08012KT P6SM VCSH SCT020 BKN035 BKN050
      TEMPO 1808/1812 SHRA SCT015 BKN025
     FM181300 14012KT P6SM VCSH SCT035 BKN060
     FM182100 14010KT P6SM SHRA VCTS SCT020 BKN040CB OVC060=



000
FTUS42 KMLB 180500 RRA
TAFMCO
TAF
KMCO 180543Z 1806/1906 08009KT P6SM SCT020 BKN040 OVC150
     FM181400 12012G20KT P6SM VCSH SCT015 BKN035 OVC080
     FM181800 15012KT P6SM SHRA VCTS SCT020 BKN040CB OVC060
     FM190300 17009KT P6SM VCSH BKN030 OVC050=



000
FTUS42 KMLB 180200 AAA
TAFMCO
TAF AMD
KMCO 180253Z 1803/1824 06011KT P6SM SCT020 BKN040 OVC250
      TEMPO 1809/1813 5SM -RA BR OVC015
     FM181400 12013G20KT P6SM VCSH SCT015 BKN035 OVC060=



000
FTUS42 KMLB 172300
TAFMLB
TAF
KMLB 172331Z 1800/1824 07012G18KT P6SM VCSH SCT015 BKN045
     FM180600 08012KT P6SM -SHRA SCT008 BKN015 OVC020
      TEMPO 1809/1813 5SM -RA BR OVC015
     FM181400 13014G23KT P6SM VCSH SCT015 BKN035 OVC070=



000
FTUS42 KMLB 172300
TAFDAB
TAF
KDAB 172331Z 1800/1824 06012G18KT P6SM SCT025 BKN060
     FM180300 07011KT P6SM VCSH SCT010 OVC020
      TEMPO 1809/1813 5SM -RA BR OVC010
     FM181400 12012G20KT P6SM VCSH SCT015 BKN035 OVC060=



000
FTUS42 KMLB 172300
TAFMCO
TAF
KMCO 172331Z 1800/1824 07014G20KT P6SM SCT025 BKN045 OVC060
     FM180300 06012KT P6SM VCSH SCT008 SCT015 OVC020
      TEMPO 1809/1813 5SM -RA BR OVC008
     FM181400 12013G20KT P6SM VCSH SCT015 BKN035 OVC060=



000
FTUS42 KMLB 172300
TAFSFB
TAF
KSFB 172331Z 1800/1824 07012G18KT P6SM SCT025 BKN045 OVC060
     FM180300 07010KT P6SM VCSH SCT008 SCT015 OVC020
      TEMPO 1809/1813 5SM -RA BR OVC006
     FM181400 12013G20KT P6SM VCSH SCT015 BKN035 OVC060=



000
FTUS42 KMLB 172300
TAFVRB
TAF
KVRB 172331Z 1800/1824 07012G18KT P6SM VCSH SCT015 BKN045
     FM180600 08012KT P6SM -SHRA SCT008 BKN015 OVC020
      TEMPO 1809/1813 5SM -RA BR OVC015
     FM181400 13014G23KT P6SM VCSH SCT015 BKN035 OVC070=



000
FTUS42 KMLB 172100 AAB
TAFMCO
TAF AMD
KMCO 172106Z 1721/1818 06017KT P6SM VCSH SCT025 BKN040 OVC250
     FM180200 06012KT P6SM -SHRA SCT008 BKN015 OVC020
     FM181300 11013G18KT P6SM VCSH BKN035 OVC060=



000
FTUS42 KMLB 172000 AAB
TAFVRB
TAF AMD
KVRB 172021Z 1720/1818 06014G22KT P6SM VCSH BKN020 OVC035
     FM180000 08011KT P6SM VCSH BKN020 OVC030
     FM181200 12015KT P6SM VCSH BKN040 OVC070=



000
FTUS42 KMLB 171900 AAA
TAFVRB
TAF AMD
KVRB 171921Z 1719/1818 06012KT P6SM VCSH SCT015 OVC035
     FM180000 08011KT P6SM VCSH BKN020 OVC030
     FM181200 12015KT P6SM VCSH BKN040 OVC070=



000
FTUS42 KMLB 171900 AAA
TAFMCO
TAF AMD
KMCO 171914Z 1719/1818 06017KT P6SM VCSH SCT021 BKN030 OVC250
     FM180200 06012KT P6SM -SHRA SCT008 BKN015 OVC020
     FM181200 11013KT P6SM VCSH BKN035 OVC060=



000
FTUS42 KMLB 171800 AAA
TAFSFB
TAF AMD
KSFB 171809Z 1718/1818 08017KT P6SM SCT025 OVC035
     FM172200 06012KT P6SM VCSH SCT020 BKN030
     FM180200 02008KT P6SM -SHRA SCT008 BKN015 OVC020
     FM181200 12013KT P6SM VCSH BKN035 OVC060=



000
FTUS42 KMLB 171700
TAFMLB
TAF
KMLB 171735Z 1718/1818 06015G22KT P6SM SCT022 OVC030
     FM172300 08013KT P6SM SHRA BKN025 OVC040
     FM180200 02008KT P6SM -SHRA SCT008 BKN015 OVC020
     FM181200 12014KT P6SM VCSH BKN040 OVC070=



000
FTUS42 KMLB 171700
TAFDAB
TAF
KDAB 171735Z 1718/1818 08015KT P6SM VCSH FEW030 BKN060 BKN140
     FM172200 06013KT P6SM -SHRA BKN025 OVC030
     FM180200 04008KT P6SM -SHRA SCT008 BKN015 OVC020
     FM181200 10011KT P6SM VCSH BKN035 OVC060=



000
FTUS42 KMLB 171700
TAFMCO
TAF
KMCO 171735Z 1718/1818 06013KT P6SM BKN020 OVC027
     FM172200 05011KT P6SM VCSH SCT020 BKN030
     FM180200 01008KT P6SM -SHRA SCT008 BKN015 OVC020
     FM181200 11013KT P6SM VCSH BKN035 OVC060=



000
FTUS42 KMLB 171700
TAFSFB
TAF
KSFB 171735Z 1718/1818 07011G20KT P6SM OVC028
     FM172200 06012KT P6SM VCSH SCT020 BKN030
     FM180200 02008KT P6SM -SHRA SCT008 BKN015 OVC020
     FM181200 12013KT P6SM VCSH BKN035 OVC060=



000
FTUS42 KMLB 171700
TAFVRB
TAF
KVRB 171735Z 1718/1818 07015G22KT P6SM SCT018 BKN035 OVC080
     FM180000 07009KT P6SM VCSH BKN020 OVC030
     FM181200 12015KT P6SM VCSH BKN040 OVC070=



000
FTUS42 KMLB 171500 AAA
TAFMLB
TAF AMD
KMLB 171504Z 1715/1812 07017KT P6SM VCSH SCT021 BKN027 OVC035
     FM171800 07015G25KT P6SM -SHRA BKN035 OVC050
     FM172300 08013KT P6SM SHRA BKN025 OVC040
     FM180200 02008KT P6SM -SHRA SCT008 BKN015 OVC020=



000
FTUS42 KMLB 171500 AAA
TAFDAB
TAF AMD
KDAB 171503Z 1715/1812 07012KT P6SM BKN040 BKN140
     FM171800 06015G25KT P6SM VCSH BKN035 BKN050
     FM172200 06013KT P6SM -SHRA BKN025 OVC030
     FM180200 04008KT P6SM -SHRA SCT008 BKN015 OVC020=



000
FTUS42 KMLB 171500 AAA
TAFSFB
TAF AMD
KSFB 171501Z 1715/1812 08018KT P6SM BKN026 OVC035
     FM171800 06014G22KT P6SM BKN040
     FM172200 06012KT P6SM VCSH SCT020 BKN030
     FM180200 02008KT P6SM -SHRA SCT008 BKN015 OVC020=



000
FTUS42 KMLB 171400 AAA
TAFMCO
TAF AMD
KMCO 171452Z 1715/1812 08013KT P6SM BKN025 OVC060
     FM171800 06014G22KT P6SM BKN050 BKN200
     FM172200 05011KT P6SM VCSH SCT020 BKN030
     FM180200 01008KT P6SM -SHRA SCT008 BKN015 OVC020=



000
FTUS42 KMLB 171300 AAA
TAFVRB
TAF AMD
KVRB 171320Z 1713/1812 06010G20KT P6SM VCSH SCT020 OVC040
     FM171500 06011G20KT P6SM SHRA BKN025 OVC040
     FM180000 07009KT P6SM VCSH BKN020 OVC030=



000
FTUS42 KMLB 171200 AAA
TAFVRB
TAF AMD
KVRB 171220Z 1712/1812 06010KT P6SM -SHRA SCT020 OVC040
      TEMPO 1712/1714 5SM SHRA BKN020 OVC030
     FM171500 06011G20KT P6SM SHRA BKN025 OVC040
     FM180000 07009KT P6SM VCSH BKN020 OVC030=



000
FTUS42 KMLB 171100
TAFMCO
TAF
KMCO 171137Z 1712/1812 02008KT P6SM BKN050
     FM171400 04012KT P6SM SCT050 BKN200
     FM171600 06014G22KT P6SM BKN050 BKN200
     FM172200 05011KT P6SM VCSH SCT020 BKN030
     FM180200 01008KT P6SM -SHRA SCT008 BKN015 OVC020=



000
FTUS42 KMLB 171100
TAFDAB
TAF
KDAB 171137Z 1712/1812 02007KT P6SM SCT050
     FM171400 04011KT P6SM BKN050
     FM171600 06015G25KT P6SM VCSH BKN035 BKN050
     FM172200 06013KT P6SM -SHRA BKN025 OVC030
     FM180200 04008KT P6SM -SHRA SCT008 BKN015 OVC020=



000
FTUS42 KMLB 171100
TAFMLB
TAF
KMLB 171137Z 1712/1812 07012KT P6SM VCSH SCT020 OVC035
      TEMPO 1712/1715 -SHRA BKN020 OVC030
     FM171500 07015G25KT P6SM -SHRA BKN035 OVC050
     FM172300 08013KT P6SM SHRA BKN025 OVC040
     FM180200 02008KT P6SM -SHRA SCT008 BKN015 OVC020=



000
FTUS42 KMLB 171100
TAFSFB
TAF
KSFB 171137Z 1712/1812 02008KT P6SM BKN050
     FM171300 03011KT P6SM SCT050
     FM171600 06014G22KT P6SM BKN040
     FM172200 06012KT P6SM VCSH SCT020 BKN030
     FM180200 02008KT P6SM -SHRA SCT008 BKN015 OVC020=



000
FTUS42 KMLB 171100
TAFVRB
TAF
KVRB 171137Z 1712/1812 06010KT P6SM -SHRA SCT030 OVC040
      TEMPO 1712/1714 5SM SHRA BKN020 OVC030
     FM171500 06011G20KT P6SM SHRA BKN025 OVC040
     FM180000 07009KT P6SM VCSH BKN020 OVC030=



    US Dept of Commerce
    National Oceanic and Atmospheric Administration
    National Weather Service
    1325 East West Highway
    Silver Spring, MD 20910
    Page Author: NWS Internet Services Team
Disclaimer
Information Quality
Credits
Glossary
Privacy Policy
Freedom of Information Act (FOIA)
About Us
Career Opportunities